sensor_id;sensor_type;location;lat;lon;timestamp;P1;durP1;ratioP1;P2;durP2;ratioP2
2031;SDS011;27625;50.422;7.944;2022-09-30T00:02:37;12.57;;;9.00;;
2031;SDS011;27625;50.422;7.944;2022-09-30T00:05:04;10.20;;;8.10;;
2031;SDS011;27625;50.422;7.944;2022-09-30T00:07:31;9.87;;;7.93;;
2031;SDS011;27625;50.422;7.944;2022-09-30T00:09:58;9.10;;;7.83;;
2031;SDS011;27625;50.422;7.944;2022-09-30T00:12:24;10.00;;;7.80;;
2031;SDS011;27625;50.422;7.944;2022-09-30T00:14:53;9.93;;;7.97;;
2031;SDS011;27625;50.422;7.944;2022-09-30T00:17:20;10.80;;;8.17;;
2031;SDS011;27625;50.422;7.944;2022-09-30T00:19:48;11.17;;;8.10;;
2031;SDS011;27625;50.422;7.944;2022-09-30T00:22:14;11.70;;;9.00;;
2031;SDS011;27625;50.422;7.944;2022-09-30T00:24:41;10.00;;;8.43;;
2031;SDS011;27625;50.422;7.944;2022-09-30T00:27:07;9.03;;;7.80;;
2031;SDS011;27625;50.422;7.944;2022-09-30T00:29:34;10.03;;;8.03;;
2031;SDS011;27625;50.422;7.944;2022-09-30T00:32:00;14.67;;;8.70;;
2031;SDS011;27625;50.422;7.944;2022-09-30T00:34:27;12.20;;;7.97;;
2031;SDS011;27625;50.422;7.944;2022-09-30T00:36:55;9.70;;;7.30;;
2031;SDS011;27625;50.422;7.944;2022-09-30T00:39:22;8.70;;;7.77;;
2031;SDS011;27625;50.422;7.944;2022-09-30T00:41:50;10.73;;;8.37;;
2031;SDS011;27625;50.422;7.944;2022-09-30T00:50:05;15.90;;;8.53;;
2031;SDS011;27625;50.422;7.944;2022-09-30T00:52:38;11.03;;;8.20;;
2031;SDS011;27625;50.422;7.944;2022-09-30T00:55:07;11.07;;;8.40;;
2031;SDS011;27625;50.422;7.944;2022-09-30T00:57:35;11.40;;;8.17;;
2031;SDS011;27625;50.422;7.944;2022-09-30T01:00:03;9.00;;;8.07;;
2031;SDS011;27625;50.422;7.944;2022-09-30T01:02:30;10.87;;;7.53;;
2031;SDS011;27625;50.422;7.944;2022-09-30T01:04:57;8.97;;;7.97;;
2031;SDS011;27625;50.422;7.944;2022-09-30T01:07:24;11.83;;;8.00;;
2031;SDS011;27625;50.422;7.944;2022-09-30T01:09:53;8.13;;;7.33;;
2031;SDS011;27625;50.422;7.944;2022-09-30T01:12:21;10.13;;;8.07;;
2031;SDS011;27625;50.422;7.944;2022-09-30T01:14:48;10.57;;;7.23;;
2031;SDS011;27625;50.422;7.944;2022-09-30T01:17:18;9.20;;;8.13;;
2031;SDS011;27625;50.422;7.944;2022-09-30T01:22:53;11.13;;;8.70;;
2031;SDS011;27625;50.422;7.944;2022-09-30T01:31:26;16.50;;;10.23;;
2031;SDS011;27625;50.422;7.944;2022-09-30T01:33:58;15.00;;;9.90;;
2031;SDS011;27625;50.422;7.944;2022-09-30T01:36:31;14.40;;;10.77;;
2031;SDS011;27625;50.422;7.944;2022-09-30T01:39:09;17.17;;;9.67;;
2031;SDS011;27625;50.422;7.944;2022-09-30T01:41:41;14.87;;;10.60;;
2031;SDS011;27625;50.422;7.944;2022-09-30T01:44:12;14.97;;;10.30;;
2031;SDS011;27625;50.422;7.944;2022-09-30T01:46:41;21.03;;;13.93;;
2031;SDS011;27625;50.422;7.944;2022-09-30T01:49:10;21.50;;;14.80;;
2031;SDS011;27625;50.422;7.944;2022-09-30T01:51:43;18.17;;;12.87;;
2031;SDS011;27625;50.422;7.944;2022-09-30T01:54:12;16.70;;;10.13;;
2031;SDS011;27625;50.422;7.944;2022-09-30T01:56:43;15.43;;;10.10;;
2031;SDS011;27625;50.422;7.944;2022-09-30T01:59:13;12.37;;;9.43;;
2031;SDS011;27625;50.422;7.944;2022-09-30T02:01:43;12.10;;;8.80;;
2031;SDS011;27625;50.422;7.944;2022-09-30T02:04:13;12.07;;;9.33;;
2031;SDS011;27625;50.422;7.944;2022-09-30T02:06:44;11.33;;;9.20;;
2031;SDS011;27625;50.422;7.944;2022-09-30T02:09:14;11.17;;;8.80;;
2031;SDS011;27625;50.422;7.944;2022-09-30T02:11:44;10.53;;;8.97;;
2031;SDS011;27625;50.422;7.944;2022-09-30T02:14:12;12.57;;;9.47;;
2031;SDS011;27625;50.422;7.944;2022-09-30T02:16:41;12.40;;;9.00;;
2031;SDS011;27625;50.422;7.944;2022-09-30T02:19:13;10.87;;;8.87;;
2031;SDS011;27625;50.422;7.944;2022-09-30T02:21:43;10.20;;;8.20;;
2031;SDS011;27625;50.422;7.944;2022-09-30T02:24:13;13.80;;;8.40;;
2031;SDS011;27625;50.422;7.944;2022-09-30T02:26:42;10.47;;;9.00;;
2031;SDS011;27625;50.422;7.944;2022-09-30T02:29:09;9.20;;;8.13;;
2031;SDS011;27625;50.422;7.944;2022-09-30T02:31:40;9.90;;;8.00;;
2031;SDS011;27625;50.422;7.944;2022-09-30T02:34:10;8.40;;;7.40;;
2031;SDS011;27625;50.422;7.944;2022-09-30T02:36:39;8.30;;;7.37;;
2031;SDS011;27625;50.422;7.944;2022-09-30T02:39:09;7.30;;;6.40;;
2031;SDS011;27625;50.422;7.944;2022-09-30T02:41:40;9.80;;;7.37;;
2031;SDS011;27625;50.422;7.944;2022-09-30T02:44:09;10.10;;;7.30;;
2031;SDS011;27625;50.422;7.944;2022-09-30T02:46:38;8.37;;;7.10;;
2031;SDS011;27625;50.422;7.944;2022-09-30T02:49:14;7.40;;;6.60;;
2031;SDS011;27625;50.422;7.944;2022-09-30T02:51:48;8.03;;;6.90;;
2031;SDS011;27625;50.422;7.944;2022-09-30T02:54:23;7.20;;;6.40;;
2031;SDS011;27625;50.422;7.944;2022-09-30T02:56:55;7.33;;;6.60;;
2031;SDS011;27625;50.422;7.944;2022-09-30T02:59:24;7.17;;;6.47;;
2031;SDS011;27625;50.422;7.944;2022-09-30T03:01:53;7.50;;;6.47;;
2031;SDS011;27625;50.422;7.944;2022-09-30T03:04:24;8.80;;;6.87;;
2031;SDS011;27625;50.422;7.944;2022-09-30T03:06:52;10.03;;;7.20;;
2031;SDS011;27625;50.422;7.944;2022-09-30T03:09:23;8.37;;;6.77;;
2031;SDS011;27625;50.422;7.944;2022-09-30T03:11:51;8.40;;;6.93;;
2031;SDS011;27625;50.422;7.944;2022-09-30T03:17:28;8.27;;;6.83;;
2031;SDS011;27625;50.422;7.944;2022-09-30T03:20:18;9.70;;;7.33;;
2031;SDS011;27625;50.422;7.944;2022-09-30T03:22:57;7.80;;;6.70;;
2031;SDS011;27625;50.422;7.944;2022-09-30T03:25:38;9.17;;;7.17;;
2031;SDS011;27625;50.422;7.944;2022-09-30T03:28:13;7.87;;;6.80;;
2031;SDS011;27625;50.422;7.944;2022-09-30T03:30:46;8.53;;;7.53;;
2031;SDS011;27625;50.422;7.944;2022-09-30T03:33:20;9.13;;;7.40;;
2031;SDS011;27625;50.422;7.944;2022-09-30T03:35:52;9.67;;;7.40;;
2031;SDS011;27625;50.422;7.944;2022-09-30T03:38:26;7.80;;;7.00;;
2031;SDS011;27625;50.422;7.944;2022-09-30T03:41:01;10.90;;;7.37;;
2031;SDS011;27625;50.422;7.944;2022-09-30T03:43:35;7.97;;;6.93;;
2031;SDS011;27625;50.422;7.944;2022-09-30T03:46:05;8.97;;;7.20;;
2031;SDS011;27625;50.422;7.944;2022-09-30T03:48:35;9.97;;;7.60;;
2031;SDS011;27625;50.422;7.944;2022-09-30T03:51:03;11.87;;;8.27;;
2031;SDS011;27625;50.422;7.944;2022-09-30T03:53:31;10.50;;;8.13;;
2031;SDS011;27625;50.422;7.944;2022-09-30T03:56:03;10.87;;;8.80;;
2031;SDS011;27625;50.422;7.944;2022-09-30T03:58:30;15.70;;;9.17;;
2031;SDS011;27625;50.422;7.944;2022-09-30T04:00:56;17.73;;;8.67;;
2031;SDS011;27625;50.422;7.944;2022-09-30T04:03:23;11.43;;;8.67;;
2031;SDS011;27625;50.422;7.944;2022-09-30T04:05:51;9.33;;;7.93;;
2031;SDS011;27625;50.422;7.944;2022-09-30T04:08:18;10.33;;;7.93;;
2031;SDS011;27625;50.422;7.944;2022-09-30T04:10:46;9.20;;;8.00;;
2031;SDS011;27625;50.422;7.944;2022-09-30T04:13:13;13.53;;;9.17;;
2031;SDS011;27625;50.422;7.944;2022-09-30T04:15:39;15.33;;;13.57;;
2031;SDS011;27625;50.422;7.944;2022-09-30T04:18:08;20.17;;;16.10;;
2031;SDS011;27625;50.422;7.944;2022-09-30T04:20:37;19.67;;;15.30;;
2031;SDS011;27625;50.422;7.944;2022-09-30T04:23:05;13.80;;;12.30;;
2031;SDS011;27625;50.422;7.944;2022-09-30T04:25:31;12.77;;;11.47;;
2031;SDS011;27625;50.422;7.944;2022-09-30T04:27:58;13.60;;;11.23;;
2031;SDS011;27625;50.422;7.944;2022-09-30T04:30:25;12.50;;;10.77;;
2031;SDS011;27625;50.422;7.944;2022-09-30T04:32:51;18.30;;;11.30;;
2031;SDS011;27625;50.422;7.944;2022-09-30T04:35:18;13.53;;;10.97;;
2031;SDS011;27625;50.422;7.944;2022-09-30T04:37:45;10.03;;;9.03;;
2031;SDS011;27625;50.422;7.944;2022-09-30T04:40:14;10.10;;;8.90;;
2031;SDS011;27625;50.422;7.944;2022-09-30T04:42:41;11.10;;;8.90;;
2031;SDS011;27625;50.422;7.944;2022-09-30T04:45:09;12.53;;;10.13;;
2031;SDS011;27625;50.422;7.944;2022-09-30T04:47:36;12.80;;;10.13;;
2031;SDS011;27625;50.422;7.944;2022-09-30T04:50:03;11.93;;;10.23;;
2031;SDS011;27625;50.422;7.944;2022-09-30T04:52:30;14.37;;;10.73;;
2031;SDS011;27625;50.422;7.944;2022-09-30T04:54:57;12.67;;;10.10;;
2031;SDS011;27625;50.422;7.944;2022-09-30T04:57:25;11.10;;;9.70;;
2031;SDS011;27625;50.422;7.944;2022-09-30T04:59:52;10.50;;;9.27;;
2031;SDS011;27625;50.422;7.944;2022-09-30T05:02:18;10.90;;;9.47;;
2031;SDS011;27625;50.422;7.944;2022-09-30T05:04:45;11.13;;;8.83;;
2031;SDS011;27625;50.422;7.944;2022-09-30T05:07:11;8.90;;;7.83;;
2031;SDS011;27625;50.422;7.944;2022-09-30T05:09:38;10.53;;;8.73;;
2031;SDS011;27625;50.422;7.944;2022-09-30T05:12:07;14.60;;;8.90;;
2031;SDS011;27625;50.422;7.944;2022-09-30T05:14:34;11.60;;;9.60;;
2031;SDS011;27625;50.422;7.944;2022-09-30T05:17:01;11.43;;;9.43;;
2031;SDS011;27625;50.422;7.944;2022-09-30T05:19:28;12.00;;;9.37;;
2031;SDS011;27625;50.422;7.944;2022-09-30T05:21:55;11.60;;;9.10;;
2031;SDS011;27625;50.422;7.944;2022-09-30T05:24:21;11.40;;;9.63;;
2031;SDS011;27625;50.422;7.944;2022-09-30T05:26:48;11.20;;;9.17;;
2031;SDS011;27625;50.422;7.944;2022-09-30T05:29:14;10.93;;;9.53;;
2031;SDS011;27625;50.422;7.944;2022-09-30T05:31:43;10.60;;;8.43;;
2031;SDS011;27625;50.422;7.944;2022-09-30T05:34:10;13.90;;;9.10;;
2031;SDS011;27625;50.422;7.944;2022-09-30T05:36:37;12.70;;;9.50;;
2031;SDS011;27625;50.422;7.944;2022-09-30T05:39:03;25.63;;;10.40;;
2031;SDS011;27625;50.422;7.944;2022-09-30T05:41:30;20.50;;;11.60;;
2031;SDS011;27625;50.422;7.944;2022-09-30T05:43:56;11.37;;;9.87;;
2031;SDS011;27625;50.422;7.944;2022-09-30T05:46:25;27.80;;;18.57;;
2031;SDS011;27625;50.422;7.944;2022-09-30T05:48:53;27.57;;;19.30;;
2031;SDS011;27625;50.422;7.944;2022-09-30T05:51:20;26.40;;;18.03;;
2031;SDS011;27625;50.422;7.944;2022-09-30T05:53:46;19.10;;;14.60;;
2031;SDS011;27625;50.422;7.944;2022-09-30T05:56:13;32.97;;;13.70;;
2031;SDS011;27625;50.422;7.944;2022-09-30T05:58:40;16.83;;;12.47;;
2031;SDS011;27625;50.422;7.944;2022-09-30T06:01:07;12.73;;;10.33;;
2031;SDS011;27625;50.422;7.944;2022-09-30T06:03:35;14.53;;;10.20;;
2031;SDS011;27625;50.422;7.944;2022-09-30T06:06:04;45.10;;;28.03;;
2031;SDS011;27625;50.422;7.944;2022-09-30T06:08:32;25.50;;;15.23;;
2031;SDS011;27625;50.422;7.944;2022-09-30T06:10:58;19.90;;;13.33;;
2031;SDS011;27625;50.422;7.944;2022-09-30T06:13:25;21.10;;;11.20;;
2031;SDS011;27625;50.422;7.944;2022-09-30T06:15:55;15.73;;;10.20;;
2031;SDS011;27625;50.422;7.944;2022-09-30T06:18:22;12.10;;;9.23;;
2031;SDS011;27625;50.422;7.944;2022-09-30T06:20:50;12.80;;;9.60;;
2031;SDS011;27625;50.422;7.944;2022-09-30T06:23:18;11.63;;;9.27;;
2031;SDS011;27625;50.422;7.944;2022-09-30T06:25:44;10.67;;;8.30;;
2031;SDS011;27625;50.422;7.944;2022-09-30T06:28:11;9.70;;;8.30;;
2031;SDS011;27625;50.422;7.944;2022-09-30T06:30:37;9.23;;;8.33;;
2031;SDS011;27625;50.422;7.944;2022-09-30T06:33:05;9.57;;;8.23;;
2031;SDS011;27625;50.422;7.944;2022-09-30T06:35:33;10.13;;;8.20;;
2031;SDS011;27625;50.422;7.944;2022-09-30T06:38:00;9.47;;;8.20;;
2031;SDS011;27625;50.422;7.944;2022-09-30T06:40:28;11.83;;;9.17;;
2031;SDS011;27625;50.422;7.944;2022-09-30T06:42:56;9.47;;;7.97;;
2031;SDS011;27625;50.422;7.944;2022-09-30T06:45:24;19.27;;;13.17;;
2031;SDS011;27625;50.422;7.944;2022-09-30T06:47:54;13.70;;;10.40;;
2031;SDS011;27625;50.422;7.944;2022-09-30T06:50:21;18.00;;;10.87;;
2031;SDS011;27625;50.422;7.944;2022-09-30T06:52:48;18.50;;;9.97;;
2031;SDS011;27625;50.422;7.944;2022-09-30T06:55:15;10.00;;;8.33;;
2031;SDS011;27625;50.422;7.944;2022-09-30T06:57:43;14.07;;;9.10;;
2031;SDS011;27625;50.422;7.944;2022-09-30T07:00:12;11.30;;;8.90;;
2031;SDS011;27625;50.422;7.944;2022-09-30T07:02:41;11.20;;;7.83;;
2031;SDS011;27625;50.422;7.944;2022-09-30T07:05:08;12.90;;;8.67;;
2031;SDS011;27625;50.422;7.944;2022-09-30T07:07:35;15.30;;;8.90;;
2031;SDS011;27625;50.422;7.944;2022-09-30T07:10:02;9.07;;;7.20;;
2031;SDS011;27625;50.422;7.944;2022-09-30T07:12:30;27.43;;;8.13;;
2031;SDS011;27625;50.422;7.944;2022-09-30T07:14:57;10.80;;;8.60;;
2031;SDS011;27625;50.422;7.944;2022-09-30T07:17:25;11.83;;;8.83;;
2031;SDS011;27625;50.422;7.944;2022-09-30T07:19:51;9.43;;;7.77;;
2031;SDS011;27625;50.422;7.944;2022-09-30T07:22:18;10.10;;;8.10;;
2031;SDS011;27625;50.422;7.944;2022-09-30T07:24:56;10.80;;;8.77;;
2031;SDS011;27625;50.422;7.944;2022-09-30T07:27:23;21.33;;;9.90;;
2031;SDS011;27625;50.422;7.944;2022-09-30T07:29:49;11.97;;;9.20;;
2031;SDS011;27625;50.422;7.944;2022-09-30T07:32:17;11.03;;;8.97;;
2031;SDS011;27625;50.422;7.944;2022-09-30T07:34:44;10.70;;;8.90;;
2031;SDS011;27625;50.422;7.944;2022-09-30T07:37:12;9.57;;;7.90;;
2031;SDS011;27625;50.422;7.944;2022-09-30T07:39:39;9.20;;;7.60;;
2031;SDS011;27625;50.422;7.944;2022-09-30T07:42:07;10.60;;;8.30;;
2031;SDS011;27625;50.422;7.944;2022-09-30T07:44:34;10.33;;;8.10;;
2031;SDS011;27625;50.422;7.944;2022-09-30T07:47:01;10.40;;;8.17;;
2031;SDS011;27625;50.422;7.944;2022-09-30T07:49:29;21.47;;;8.70;;
2031;SDS011;27625;50.422;7.944;2022-09-30T07:51:56;18.70;;;8.57;;
2031;SDS011;27625;50.422;7.944;2022-09-30T07:54:24;10.17;;;8.27;;
2031;SDS011;27625;50.422;7.944;2022-09-30T07:56:52;11.10;;;8.40;;
2031;SDS011;27625;50.422;7.944;2022-09-30T07:59:19;9.90;;;8.40;;
2031;SDS011;27625;50.422;7.944;2022-09-30T08:01:46;36.00;;;9.83;;
2031;SDS011;27625;50.422;7.944;2022-09-30T08:04:14;16.87;;;8.97;;
2031;SDS011;27625;50.422;7.944;2022-09-30T08:06:43;10.27;;;8.70;;
2031;SDS011;27625;50.422;7.944;2022-09-30T08:09:11;22.30;;;8.90;;
2031;SDS011;27625;50.422;7.944;2022-09-30T08:11:38;13.00;;;8.20;;
2031;SDS011;27625;50.422;7.944;2022-09-30T08:14:07;10.10;;;8.03;;
2031;SDS011;27625;50.422;7.944;2022-09-30T08:16:34;10.47;;;8.60;;
2031;SDS011;27625;50.422;7.944;2022-09-30T08:19:00;9.90;;;7.97;;
2031;SDS011;27625;50.422;7.944;2022-09-30T08:21:28;11.03;;;9.00;;
2031;SDS011;27625;50.422;7.944;2022-09-30T08:23:56;10.17;;;8.87;;
2031;SDS011;27625;50.422;7.944;2022-09-30T08:26:23;10.70;;;8.90;;
2031;SDS011;27625;50.422;7.944;2022-09-30T08:28:50;15.70;;;9.70;;
2031;SDS011;27625;50.422;7.944;2022-09-30T08:31:17;16.13;;;9.63;;
2031;SDS011;27625;50.422;7.944;2022-09-30T08:33:44;11.63;;;9.03;;
2031;SDS011;27625;50.422;7.944;2022-09-30T08:36:12;12.70;;;8.67;;
2031;SDS011;27625;50.422;7.944;2022-09-30T08:38:40;12.17;;;9.27;;
2031;SDS011;27625;50.422;7.944;2022-09-30T08:41:12;13.90;;;9.90;;
2031;SDS011;27625;50.422;7.944;2022-09-30T08:43:48;13.10;;;10.37;;
2031;SDS011;27625;50.422;7.944;2022-09-30T08:46:24;12.10;;;9.20;;
2031;SDS011;27625;50.422;7.944;2022-09-30T08:48:59;13.83;;;9.10;;
2031;SDS011;27625;50.422;7.944;2022-09-30T08:51:29;9.70;;;8.70;;
2031;SDS011;27625;50.422;7.944;2022-09-30T08:53:58;9.80;;;8.80;;
2031;SDS011;27625;50.422;7.944;2022-09-30T08:56:29;11.90;;;9.33;;
2031;SDS011;27625;50.422;7.944;2022-09-30T08:59:00;15.37;;;11.93;;
2031;SDS011;27625;50.422;7.944;2022-09-30T09:01:31;15.73;;;9.73;;
2031;SDS011;27625;50.422;7.944;2022-09-30T09:03:59;10.77;;;8.97;;
2031;SDS011;27625;50.422;7.944;2022-09-30T09:06:28;9.87;;;8.40;;
2031;SDS011;27625;50.422;7.944;2022-09-30T09:09:02;13.20;;;9.83;;
2031;SDS011;27625;50.422;7.944;2022-09-30T09:11:49;11.57;;;9.90;;
2031;SDS011;27625;50.422;7.944;2022-09-30T09:14:28;10.40;;;9.00;;
2031;SDS011;27625;50.422;7.944;2022-09-30T09:17:02;12.33;;;10.20;;
2031;SDS011;27625;50.422;7.944;2022-09-30T09:19:35;11.70;;;10.50;;
2031;SDS011;27625;50.422;7.944;2022-09-30T09:22:03;12.20;;;10.30;;
2031;SDS011;27625;50.422;7.944;2022-09-30T09:24:32;13.50;;;10.87;;
2031;SDS011;27625;50.422;7.944;2022-09-30T09:27:11;13.07;;;10.90;;
2031;SDS011;27625;50.422;7.944;2022-09-30T09:29:47;13.30;;;10.73;;
2031;SDS011;27625;50.422;7.944;2022-09-30T09:32:18;15.60;;;12.00;;
2031;SDS011;27625;50.422;7.944;2022-09-30T09:34:45;13.47;;;10.77;;
2031;SDS011;27625;50.422;7.944;2022-09-30T09:37:19;14.23;;;11.00;;
2031;SDS011;27625;50.422;7.944;2022-09-30T09:40:09;14.47;;;11.50;;
2031;SDS011;27625;50.422;7.944;2022-09-30T09:42:41;14.00;;;10.73;;
2031;SDS011;27625;50.422;7.944;2022-09-30T09:45:19;14.10;;;10.60;;
2031;SDS011;27625;50.422;7.944;2022-09-30T09:47:51;13.03;;;10.80;;
2031;SDS011;27625;50.422;7.944;2022-09-30T09:50:22;12.03;;;10.67;;
2031;SDS011;27625;50.422;7.944;2022-09-30T09:53:10;12.00;;;10.80;;
2031;SDS011;27625;50.422;7.944;2022-09-30T09:55:42;12.90;;;11.03;;
2031;SDS011;27625;50.422;7.944;2022-09-30T09:58:11;12.50;;;10.70;;
2031;SDS011;27625;50.422;7.944;2022-09-30T10:00:39;15.03;;;11.73;;
2031;SDS011;27625;50.422;7.944;2022-09-30T10:03:23;11.77;;;10.33;;
2031;SDS011;27625;50.422;7.944;2022-09-30T10:05:59;13.43;;;11.67;;
2031;SDS011;27625;50.422;7.944;2022-09-30T10:08:28;12.13;;;10.83;;
2031;SDS011;27625;50.422;7.944;2022-09-30T10:10:57;15.07;;;12.43;;
2031;SDS011;27625;50.422;7.944;2022-09-30T10:13:28;15.23;;;12.93;;
2031;SDS011;27625;50.422;7.944;2022-09-30T10:15:56;14.53;;;12.70;;
2031;SDS011;27625;50.422;7.944;2022-09-30T10:18:24;13.93;;;12.40;;
2031;SDS011;27625;50.422;7.944;2022-09-30T10:20:53;15.27;;;12.73;;
2031;SDS011;27625;50.422;7.944;2022-09-30T10:23:24;14.77;;;13.10;;
2031;SDS011;27625;50.422;7.944;2022-09-30T10:25:54;15.53;;;13.33;;
2031;SDS011;27625;50.422;7.944;2022-09-30T10:28:32;14.80;;;13.30;;
2031;SDS011;27625;50.422;7.944;2022-09-30T10:31:01;14.93;;;12.70;;
2031;SDS011;27625;50.422;7.944;2022-09-30T10:33:30;16.53;;;13.97;;
2031;SDS011;27625;50.422;7.944;2022-09-30T10:36:10;15.37;;;13.17;;
2031;SDS011;27625;50.422;7.944;2022-09-30T10:38:51;13.23;;;11.80;;
2031;SDS011;27625;50.422;7.944;2022-09-30T10:41:23;16.93;;;14.73;;
2031;SDS011;27625;50.422;7.944;2022-09-30T10:43:52;15.43;;;13.50;;
2031;SDS011;27625;50.422;7.944;2022-09-30T10:46:21;16.83;;;14.07;;
2031;SDS011;27625;50.422;7.944;2022-09-30T10:48:48;16.33;;;14.10;;
2031;SDS011;27625;50.422;7.944;2022-09-30T10:51:20;16.80;;;14.30;;
2031;SDS011;27625;50.422;7.944;2022-09-30T10:53:55;16.40;;;13.77;;
2031;SDS011;27625;50.422;7.944;2022-09-30T10:56:32;15.27;;;13.67;;
2031;SDS011;27625;50.422;7.944;2022-09-30T10:59:03;16.27;;;13.47;;
2031;SDS011;27625;50.422;7.944;2022-09-30T11:01:31;15.80;;;12.90;;
2031;SDS011;27625;50.422;7.944;2022-09-30T11:04:01;14.20;;;12.70;;
2031;SDS011;27625;50.422;7.944;2022-09-30T11:06:31;15.17;;;13.10;;
2031;SDS011;27625;50.422;7.944;2022-09-30T11:09:01;13.57;;;12.07;;
2031;SDS011;27625;50.422;7.944;2022-09-30T11:11:32;13.20;;;11.57;;
2031;SDS011;27625;50.422;7.944;2022-09-30T11:14:01;15.60;;;12.93;;
2031;SDS011;27625;50.422;7.944;2022-09-30T11:16:44;14.37;;;12.87;;
2031;SDS011;27625;50.422;7.944;2022-09-30T11:19:15;13.27;;;11.73;;
2031;SDS011;27625;50.422;7.944;2022-09-30T11:21:47;11.80;;;10.60;;
2031;SDS011;27625;50.422;7.944;2022-09-30T11:24:19;13.97;;;12.57;;
2031;SDS011;27625;50.422;7.944;2022-09-30T11:26:52;14.83;;;11.23;;
2031;SDS011;27625;50.422;7.944;2022-09-30T11:32:21;13.87;;;10.60;;
2031;SDS011;27625;50.422;7.944;2022-09-30T11:34:56;12.97;;;10.53;;
2031;SDS011;27625;50.422;7.944;2022-09-30T11:37:31;11.60;;;10.40;;
2031;SDS011;27625;50.422;7.944;2022-09-30T11:42:55;11.87;;;10.37;;
2031;SDS011;27625;50.422;7.944;2022-09-30T11:45:30;11.90;;;10.13;;
2031;SDS011;27625;50.422;7.944;2022-09-30T11:48:08;14.70;;;11.47;;
2031;SDS011;27625;50.422;7.944;2022-09-30T11:50:45;13.00;;;11.10;;
2031;SDS011;27625;50.422;7.944;2022-09-30T11:53:19;12.40;;;10.60;;
2031;SDS011;27625;50.422;7.944;2022-09-30T11:56:02;13.63;;;10.37;;
2031;SDS011;27625;50.422;7.944;2022-09-30T11:58:35;13.37;;;9.73;;
2031;SDS011;27625;50.422;7.944;2022-09-30T12:01:12;12.10;;;10.10;;
2031;SDS011;27625;50.422;7.944;2022-09-30T12:03:43;12.03;;;9.27;;
2031;SDS011;27625;50.422;7.944;2022-09-30T12:06:15;11.27;;;8.90;;
2031;SDS011;27625;50.422;7.944;2022-09-30T12:08:45;13.37;;;9.23;;
2031;SDS011;27625;50.422;7.944;2022-09-30T12:11:15;13.57;;;8.30;;
2031;SDS011;27625;50.422;7.944;2022-09-30T12:13:45;9.13;;;8.20;;
2031;SDS011;27625;50.422;7.944;2022-09-30T12:16:17;8.67;;;7.77;;
2031;SDS011;27625;50.422;7.944;2022-09-30T12:18:47;9.90;;;8.20;;
2031;SDS011;27625;50.422;7.944;2022-09-30T12:21:19;7.97;;;6.97;;
2031;SDS011;27625;50.422;7.944;2022-09-30T12:23:49;9.30;;;7.57;;
2031;SDS011;27625;50.422;7.944;2022-09-30T12:26:22;10.47;;;6.80;;
2031;SDS011;27625;50.422;7.944;2022-09-30T12:28:50;9.13;;;6.80;;
2031;SDS011;27625;50.422;7.944;2022-09-30T12:31:44;10.53;;;8.00;;
2031;SDS011;27625;50.422;7.944;2022-09-30T12:34:37;12.20;;;8.33;;
2031;SDS011;27625;50.422;7.944;2022-09-30T12:37:14;9.90;;;7.67;;
2031;SDS011;27625;50.422;7.944;2022-09-30T12:42:55;9.50;;;8.00;;
2031;SDS011;27625;50.422;7.944;2022-09-30T12:48:26;8.17;;;7.03;;
2031;SDS011;27625;50.422;7.944;2022-09-30T12:50:55;8.50;;;7.10;;
2031;SDS011;27625;50.422;7.944;2022-09-30T12:53:24;10.00;;;7.07;;
2031;SDS011;27625;50.422;7.944;2022-09-30T12:55:52;8.20;;;6.80;;
2031;SDS011;27625;50.422;7.944;2022-09-30T12:58:21;7.63;;;6.63;;
2031;SDS011;27625;50.422;7.944;2022-09-30T13:00:59;9.10;;;6.40;;
2031;SDS011;27625;50.422;7.944;2022-09-30T13:03:43;8.23;;;7.20;;
2031;SDS011;27625;50.422;7.944;2022-09-30T13:06:13;7.80;;;7.00;;
2031;SDS011;27625;50.422;7.944;2022-09-30T13:08:43;7.90;;;7.10;;
2031;SDS011;27625;50.422;7.944;2022-09-30T13:11:34;8.73;;;6.20;;
2031;SDS011;27625;50.422;7.944;2022-09-30T13:14:10;9.07;;;6.60;;
2031;SDS011;27625;50.422;7.944;2022-09-30T13:19:49;10.00;;;7.27;;
2031;SDS011;27625;50.422;7.944;2022-09-30T13:25:26;8.10;;;6.53;;
2031;SDS011;27625;50.422;7.944;2022-09-30T13:28:24;7.90;;;5.47;;
2031;SDS011;27625;50.422;7.944;2022-09-30T13:33:41;8.30;;;6.60;;
2031;SDS011;27625;50.422;7.944;2022-09-30T13:36:28;9.00;;;6.60;;
2031;SDS011;27625;50.422;7.944;2022-09-30T13:41:55;22.90;;;7.23;;
2031;SDS011;27625;50.422;7.944;2022-09-30T13:44:29;9.93;;;6.50;;
2031;SDS011;27625;50.422;7.944;2022-09-30T13:46:58;8.50;;;6.80;;
2031;SDS011;27625;50.422;7.944;2022-09-30T13:49:32;8.83;;;6.83;;
2031;SDS011;27625;50.422;7.944;2022-09-30T13:52:07;9.50;;;7.20;;
2031;SDS011;27625;50.422;7.944;2022-09-30T13:54:34;7.93;;;6.50;;
2031;SDS011;27625;50.422;7.944;2022-09-30T13:57:10;8.83;;;6.30;;
2031;SDS011;27625;50.422;7.944;2022-09-30T13:59:45;8.40;;;6.33;;
2031;SDS011;27625;50.422;7.944;2022-09-30T14:08:15;7.53;;;6.50;;
2031;SDS011;27625;50.422;7.944;2022-09-30T14:10:56;9.53;;;6.07;;
2031;SDS011;27625;50.422;7.944;2022-09-30T14:13:33;6.90;;;5.63;;
2031;SDS011;27625;50.422;7.944;2022-09-30T14:19:18;3.97;;;3.00;;
2031;SDS011;27625;50.422;7.944;2022-09-30T14:21:54;11.83;;;9.40;;
2031;SDS011;27625;50.422;7.944;2022-09-30T14:24:24;9.27;;;4.67;;
2031;SDS011;27625;50.422;7.944;2022-09-30T14:27:05;18.90;;;12.93;;
2031;SDS011;27625;50.422;7.944;2022-09-30T14:29:46;5.50;;;4.23;;
2031;SDS011;27625;50.422;7.944;2022-09-30T14:32:19;3.80;;;2.47;;
2031;SDS011;27625;50.422;7.944;2022-09-30T14:34:49;7.77;;;2.87;;
2031;SDS011;27625;50.422;7.944;2022-09-30T14:37:20;2.83;;;1.93;;
2031;SDS011;27625;50.422;7.944;2022-09-30T14:39:53;4.80;;;2.40;;
2031;SDS011;27625;50.422;7.944;2022-09-30T14:42:22;3.93;;;2.20;;
2031;SDS011;27625;50.422;7.944;2022-09-30T14:44:53;3.00;;;2.37;;
2031;SDS011;27625;50.422;7.944;2022-09-30T14:47:26;4.80;;;2.20;;
2031;SDS011;27625;50.422;7.944;2022-09-30T14:49:53;3.63;;;1.80;;
2031;SDS011;27625;50.422;7.944;2022-09-30T14:52:36;3.03;;;2.10;;
2031;SDS011;27625;50.422;7.944;2022-09-30T14:55:17;5.67;;;2.43;;
2031;SDS011;27625;50.422;7.944;2022-09-30T14:57:47;3.17;;;2.10;;
2031;SDS011;27625;50.422;7.944;2022-09-30T15:00:18;3.63;;;2.30;;
2031;SDS011;27625;50.422;7.944;2022-09-30T15:02:51;7.70;;;2.80;;
2031;SDS011;27625;50.422;7.944;2022-09-30T15:05:19;3.73;;;2.10;;
2031;SDS011;27625;50.422;7.944;2022-09-30T15:07:45;3.30;;;2.07;;
2031;SDS011;27625;50.422;7.944;2022-09-30T15:10:20;3.00;;;1.90;;
2031;SDS011;27625;50.422;7.944;2022-09-30T15:12:49;5.90;;;4.20;;
2031;SDS011;27625;50.422;7.944;2022-09-30T15:15:24;4.40;;;2.17;;
2031;SDS011;27625;50.422;7.944;2022-09-30T15:17:53;3.50;;;2.07;;
2031;SDS011;27625;50.422;7.944;2022-09-30T15:20:24;4.23;;;2.13;;
2031;SDS011;27625;50.422;7.944;2022-09-30T15:22:54;3.70;;;2.20;;
2031;SDS011;27625;50.422;7.944;2022-09-30T15:25:24;4.80;;;2.40;;
2031;SDS011;27625;50.422;7.944;2022-09-30T15:27:50;4.03;;;2.40;;
2031;SDS011;27625;50.422;7.944;2022-09-30T15:30:21;6.37;;;3.20;;
2031;SDS011;27625;50.422;7.944;2022-09-30T15:32:55;3.80;;;2.20;;
2031;SDS011;27625;50.422;7.944;2022-09-30T15:35:22;3.40;;;2.20;;
2031;SDS011;27625;50.422;7.944;2022-09-30T15:37:49;5.33;;;3.57;;
2031;SDS011;27625;50.422;7.944;2022-09-30T15:40:17;5.63;;;2.63;;
2031;SDS011;27625;50.422;7.944;2022-09-30T15:43:13;5.10;;;3.00;;
2031;SDS011;27625;50.422;7.944;2022-09-30T15:45:42;7.40;;;2.63;;
2031;SDS011;27625;50.422;7.944;2022-09-30T15:51:00;5.10;;;2.50;;
2031;SDS011;27625;50.422;7.944;2022-09-30T15:53:54;3.90;;;1.83;;
2031;SDS011;27625;50.422;7.944;2022-09-30T15:56:31;3.30;;;2.53;;
2031;SDS011;27625;50.422;7.944;2022-09-30T15:59:01;5.93;;;3.20;;
2031;SDS011;27625;50.422;7.944;2022-09-30T16:01:33;7.43;;;4.77;;
2031;SDS011;27625;50.422;7.944;2022-09-30T16:04:02;6.20;;;4.40;;